Terminal Aerodrome Forecast
Issued by NWS

Home | Current Version | Previous Version | Text Only | Print | Product List | Glossary On
Versions: 1 2 3 4 5 6 7 8 9 10 11 12 13 14
000
FTUS42 KTBW 302300 RRA
TAFPGD
TAF
KPGD 302341Z 3100/3124 02011KT P6SM SCT040
     FM310200 VRB03KT P6SM FEW250
     FM311500 30006KT P6SM FEW030 SCT250
     FM311800 27007KT P6SM VCTS SCT040CB SCT250=

USA.gov is the U.S. government's official web portal to all federal, state and local government web resources and services.